Latest Weather Observations for Norseman Airport

IDW60801

Issued at 10:35 am WST Saturday 22 November 2014 (issued every 30 minutes, with the page automatically refreshed every 10 minutes)

About weather observations | Map of weather stations | Latest weather observations for WA | Other Formats
Station Details ID: 012009 Name: NORSEMAN AERO Lat: -32.21 Lon: 121.75 Height: 262.5 m
Data from the previous 72 hours. | See also: Recent months at Norseman Airport
Date/Time
WST
Temp
°C
App
Temp
°C
Dew
Point
Rel
Hum
%
Delta-T
°C
Wind Press
QNH
hPa
Press
MSL
hPa
Rain
since 9 am
mm
Dir
 
Spd
km/h
Gust
km/h
Spd
kts
Gust
kts
22/10:30am 21.9 20.6 10.1 47 6.5 NE 7 11 4 6 1011.8 1010.8 0.0
22/10:00am 20.9 19.7 11.5 55 5.3 NNW 9 15 5 8 1012.0 1011.1 0.0
22/09:30am 20.5 19.3 11.7 57 4.9 W 9 15 5 8 1012.2 1011.3 0.0
22/09:00am 20.0 19.5 12.7 63 4.2 WNW 7 13 4 7 1012.4 1011.5 0.0
22/08:30am 19.0 19.5 12.7 67 3.6 S 2 7 1 4 1012.5 1011.6 0.0
22/08:00am 18.3 18.4 12.7 70 3.2 SW 4 9 2 5 1012.6 1011.7 0.0
22/07:30am 17.3 16.7 12.2 72 2.8 ESE 7 13 4 7 1012.6 1011.7 0.0
22/07:00am 16.5 15.9 12.3 76 2.3 E 7 9 4 5 1012.4 1011.5 0.0
22/06:30am 15.9 14.8 12.1 78 2.1 ESE 9 13 5 7 1012.3 1011.4 0.0
22/06:00am 15.5 14.9 12.3 81 1.8 ESE 7 15 4 8 1012.0 1011.1 0.0
22/05:30am 14.7 14.2 12.2 85 1.4 ESE 6 9 3 5 1011.7 1010.7 0.0
22/05:00am 13.9 13.9 12.5 91 0.8 SSW 4 7 2 4 1011.6 1010.6 0.0
22/04:30am 13.7 14.1 12.4 92 0.7 SSE 2 7 1 4 1011.3 1010.3 0.0
22/04:00am 13.4 12.9 12.1 92 0.7 S 6 7 3 4 1010.8 1009.9 0.0
22/03:30am 13.3 12.3 12.2 93 0.6 SSW 9 13 5 7 1010.5 1009.6 0.0
22/03:00am 13.5 12.5 12.2 92 0.7 S 9 11 5 6 1010.3 1009.4 0.0
22/02:30am 13.7 12.6 12.1 90 0.9 S 9 13 5 7 1009.9 1009.0 0.0
22/02:00am 14.4 13.4 12.3 87 1.2 S 9 13 5 7 1010.1 1009.2 0.0
22/01:30am 14.7 13.7 12.2 85 1.4 S 9 11 5 6 1009.8 1008.9 0.0
22/01:00am 15.4 14.0 12.3 82 1.7 SSW 11 13 6 7 1009.8 1008.9 0.0
22/12:30am 16.0 14.3 12.4 79 2.0 S 13 20 7 11 1009.6 1008.7 0.0
22/12:00am 16.3 14.9 12.3 77 2.2 S 11 17 6 9 1009.8 1008.9 0.0
 
Date/Time
WST
Temp
°C
App
Temp
°C
Dew
Point
Rel
Hum
%
Delta-T
°C
Wind Press
QNH
hPa
Press
MSL
hPa
Rain
since 9 am
mm
Dir
 
Spd
km/h
Gust
km/h
Spd
kts
Gust
kts
21/11:30pm 16.9 15.5 12.2 74 2.6 S 11 15 6 8 1009.5 1008.6 0.0
21/11:00pm 17.9 16.2 12.4 70 3.1 S 13 17 7 9 1009.5 1008.6 0.0
21/10:30pm 18.7 17.3 12.2 66 3.7 S 11 17 6 9 1009.4 1008.5 0.0
21/10:00pm 19.8 17.4 12.6 63 4.1 S 17 24 9 13 1009.3 1008.4 0.0
21/09:30pm 21.0 19.7 11.3 54 5.4 S 9 13 5 7 1009.2 1008.3 0.0
21/09:00pm 19.9 19.0 10.6 55 5.1 SW 6 9 3 5 1008.9 1008.0 0.0
21/08:30pm 21.0 20.2 11.1 53 5.5 W 6 7 3 4 1009.0 1008.1 0.0
21/08:00pm 21.2 20.0 10.4 50 6.0 WSW 7 9 4 5 1008.9 1008.0 0.0
21/07:30pm 21.4 19.7 9.9 48 6.3 WSW 9 11 5 6 1008.7 1007.8 0.0
21/07:00pm 22.6 20.2 11.4 49 6.3 WSW 15 19 8 10 1008.5 1007.5 0.0
21/06:30pm 24.6 20.3 7.7 34 9.0 WSW 20 26 11 14 1008.1 1007.1 0.0
21/06:00pm 26.0 21.3 7.6 31 9.9 W 22 30 12 16 1007.9 1006.9 0.0
21/05:30pm 26.4 21.0 7.9 31 10.0 WSW 26 35 14 19 1007.6 1006.6 0.0
21/05:00pm 26.9 21.7 7.4 29 10.5 WSW 24 33 13 18 1007.4 1006.4 0.0
21/04:30pm 27.2 21.3 9.1 32 10.1 SW 30 35 16 19 1007.3 1006.3 0.0
21/04:00pm 27.6 21.4 9.4 32 10.2 W 32 54 17 29 1007.4 1006.4 0.0
21/03:55pm 27.8 21.9 9.1 31 10.4 W 30 54 16 29 1007.2 1006.2 0.0
21/03:30pm 27.2 21.8 9.5 33 9.9 W 28 44 15 24 1007.2 1006.2 0.0
21/03:00pm 26.8 21.9 10.1 35 9.4 W 26 43 14 23 1007.2 1006.2 0.0
21/02:41pm 26.2 20.4 9.5 35 9.3 WSW 30 48 16 26 1007.4 1006.4 0.0
21/02:30pm 27.8 24.1 10.1 33 10.0 SW 20 35 11 19 1007.4 1006.4 0.0
21/02:00pm 26.9 22.5 8.8 32 10.0 WSW 22 30 12 16 1007.6 1006.6 0.0
21/01:30pm 27.4 20.9 10.2 34 9.7 WSW 35 43 19 23 1007.8 1006.8 0.0
21/01:00pm 26.2 20.7 9.1 34 9.5 W 28 46 15 25 1008.2 1007.2 0.0
21/12:58pm 26.7 21.5 10.4 36 9.2 W 28 46 15 25 1008.2 1007.2 0.0
21/12:30pm 25.6 20.2 9.4 36 9.0 WSW 28 43 15 23 1008.4 1007.4 0.0
21/12:00pm 25.5 20.0 9.3 36 9.0 WSW 28 41 15 22 1008.7 1007.8 0.0
21/11:30am 25.0 20.9 10.1 39 8.3 WSW 22 32 12 17 1009.0 1008.1 0.0
21/11:00am 23.9 20.3 10.6 43 7.5 W 20 32 11 17 1009.4 1008.5 0.0
21/10:30am 23.2 19.7 10.3 44 7.2 WSW 19 28 10 15 1009.8 1008.9 0.0
21/10:00am 22.6 19.3 11.0 48 6.5 WSW 19 30 10 16 1009.9 1009.0 0.0
21/09:30am 21.5 17.9 10.0 48 6.3 W 19 26 10 14 1010.3 1009.4 0.0
21/09:00am 21.2 17.7 11.0 52 5.7 WSW 20 35 11 19 1010.4 1009.5 0.0
21/08:30am 20.4 16.6 11.1 55 5.2 WSW 22 30 12 16 1010.6 1009.7 0.0
21/08:00am 19.6 16.4 11.4 59 4.6 W 19 28 10 15 1010.9 1010.0 0.0
21/07:30am 18.8 15.4 10.6 59 4.5 WSW 19 22 10 12 1010.9 1010.0 0.0
21/07:00am 18.0 14.5 10.1 60 4.3 W 19 22 10 12 1010.8 1009.9 0.0
21/06:30am 16.7 15.1 10.3 66 3.4 SW 9 13 5 7 1010.7 1009.8 0.0
21/06:00am 15.5 15.5 9.8 69 3.0 CALM 0 7 0 4 1010.4 1009.5 0.0
21/05:30am 14.5 14.6 10.3 76 2.2 CALM 0 0 0 0 1010.2 1009.3 0.0
21/05:00am 12.7 11.8 9.3 80 1.7 WSW 4 6 2 3 1009.9 1009.0 0.0
21/04:30am 13.0 10.7 9.1 77 2.0 SW 11 11 6 6 1009.6 1008.7 0.0
21/04:00am 13.4 10.8 9.5 77 2.0 SW 13 17 7 9 1009.5 1008.6 0.0
21/03:30am 14.1 11.3 9.9 76 2.2 SW 15 19 8 10 1009.4 1008.5 0.0
21/03:00am 14.0 12.0 10.0 77 2.1 SW 11 15 6 8 1009.2 1008.3 0.0
21/02:30am 14.2 12.8 11.0 81 1.7 W 9 11 5 6 1009.1 1008.2 0.0
21/02:00am 15.2 13.3 10.4 73 2.6 SW 11 17 6 9 1008.9 1008.0 0.0
21/01:30am 15.4 13.9 10.4 72 2.7 SW 9 13 5 7 1009.0 1008.1 0.0
21/01:00am 14.5 13.5 10.3 76 2.2 S 6 7 3 4 1009.1 1008.2 0.0
21/12:30am 15.3 14.2 10.7 74 2.5 S 7 9 4 5 1009.0 1008.1 0.0
21/12:00am 16.9 15.8 10.7 67 3.4 SSW 7 9 4 5 1009.0 1008.1 0.0
 
Date/Time
WST
Temp
°C
App
Temp
°C
Dew
Point
Rel
Hum
%
Delta-T
°C
Wind Press
QNH
hPa
Press
MSL
hPa
Rain
since 9 am
mm
Dir
 
Spd
km/h
Gust
km/h
Spd
kts
Gust
kts
20/11:30pm 16.7 15.6 11.8 73 2.7 SW 9 13 5 7 1009.1 1008.2 0.0
20/11:00pm 16.4 16.9 11.6 73 2.6 CALM 0 0 0 0 1009.0 1008.1 0.0
20/10:30pm 17.7 18.4 12.2 70 3.1 CALM 0 0 0 0 1009.1 1008.2 0.0
20/10:00pm 18.8 18.9 12.8 68 3.4 SW 4 7 2 4 1009.2 1008.3 0.0
20/09:30pm 19.8 17.7 9.7 52 5.5 S 11 13 6 7 1009.3 1008.4 0.0
20/09:00pm 20.1 17.7 10.2 53 5.4 SW 13 15 7 8 1009.0 1008.1 0.0
20/08:30pm 21.1 18.3 8.4 44 6.7 SW 13 13 7 7 1008.9 1008.0 0.0
20/08:00pm 21.3 19.4 8.9 45 6.7 SSW 9 11 5 6 1008.7 1007.8 0.0
20/07:30pm 22.4 20.8 10.2 46 6.7 SSW 9 9 5 5 1008.4 1007.4 0.0
20/07:00pm 23.9 22.6 9.9 41 7.8 SW 7 9 4 5 1008.1 1007.1 0.0
20/06:30pm 24.4 22.2 10.7 42 7.7 WSW 13 15 7 8 1007.9 1006.9 0.0
20/06:00pm 26.8 22.1 9.2 33 9.8 WSW 24 32 13 17 1007.8 1006.8 0.0
20/05:30pm 29.0 24.3 7.6 26 11.7 W 22 28 12 15 1007.6 1006.6 0.0
20/05:00pm 29.6 24.6 8.1 26 11.9 W 24 35 13 19 1007.5 1006.5 0.0
20/04:30pm 30.2 25.3 8.6 26 12.1 W 24 33 13 18 1007.5 1006.5 0.0
20/04:00pm 30.2 23.8 8.6 26 12.1 W 32 44 17 24 1007.7 1006.7 0.0
20/03:30pm 30.0 23.6 8.4 26 12.0 W 32 43 17 23 1007.8 1006.8 0.0
20/03:11pm 30.0 24.5 9.0 27 11.8 WNW 28 46 15 25 1007.8 1006.8 0.0
20/03:00pm 30.4 24.4 8.7 26 12.2 WNW 30 41 16 22 1007.9 1006.9 0.0
20/02:30pm 29.5 23.1 8.5 27 11.7 NW 32 44 17 24 1008.1 1007.1 0.0
20/02:00pm 29.4 24.5 10.0 30 11.1 NW 26 41 14 22 1008.3 1007.3 0.0
20/01:30pm 28.5 22.8 11.1 34 10.1 W 32 44 17 24 1008.7 1007.8 0.0
20/01:00pm 27.9 22.7 11.5 36 9.5 NW 30 43 16 23 1009.4 1008.5 0.0
20/12:30pm 26.8 22.0 11.7 39 8.7 NNW 28 39 15 21 1009.8 1008.9 0.0
20/12:00pm 27.4 23.5 14.4 45 7.9 WNW 28 32 15 17 1010.4 1009.5 0.0
20/11:30am 25.6 22.3 14.1 49 6.9 NNW 24 37 13 20 1010.9 1010.0 0.0
20/11:00am 24.3 20.3 15.2 57 5.5 N 30 41 16 22 1011.5 1010.5 0.0
20/10:30am 22.9 20.3 16.0 65 4.2 N 24 35 13 19 1012.3 1011.4 0.0
20/10:00am 21.8 18.9 16.1 70 3.5 N 26 35 14 19 1012.9 1012.0 0.0
20/09:30am 20.4 17.3 15.6 74 2.9 N 26 35 14 19 1013.5 1012.6 0.0
20/09:00am 18.9 14.8 15.0 78 2.3 N 30 35 16 19 1013.6 1012.7 0.0
20/08:30am 18.8 14.5 15.5 81 2.0 N 32 37 17 20 1013.7 1012.8 0.0
20/08:00am 17.0 12.3 14.3 84 1.6 N 32 39 17 21 1014.1 1013.2 0.0
20/07:30am 16.5 12.2 14.3 87 1.3 N 30 37 16 20 1013.9 1013.0 0.0
20/07:00am 15.5 13.3 14.5 94 0.6 NNE 19 24 10 13 1014.3 1013.4 0.0
20/06:30am 14.6 13.2 14.4 99 0.1 NNE 15 24 8 13 1014.4 1013.5 0.0
20/06:00am 13.6 11.5 13.6 100 0.0 NNE 17 24 9 13 1014.6 1013.7 0.0
20/05:48am 13.7 9.6 13.7 100 0.0 N 28 32 15 17 1014.5 1013.6 0.0
20/05:30am 11.9 10.8 11.9 100 0.0 NE 9 11 5 6 1014.3 1013.4 0.0
20/05:00am 10.3 10.0 10.1 99 0.1 NE 2 7 1 4 1014.2 1013.3 0.0
20/04:30am 10.2 10.3 10.0 99 0.1 CALM 0 0 0 0 1014.1 1013.2 0.0
20/04:00am 10.4 10.5 10.2 99 0.1 CALM 0 0 0 0 1013.9 1013.0 0.0
20/03:30am 10.8 11.0 10.6 99 0.1 CALM 0 0 0 0 1013.9 1013.0 0.0
20/03:00am 11.0 11.3 10.8 99 0.1 CALM 0 0 0 0 1013.9 1013.0 0.0
20/02:30am 11.5 11.9 11.3 99 0.1 CALM 0 0 0 0 1013.8 1012.9 0.0
20/02:00am 12.1 12.7 11.9 99 0.1 CALM 0 0 0 0 1013.8 1012.9 0.0
20/01:30am 12.3 11.8 12.0 98 0.2 SSW 6 9 3 5 1013.9 1013.0 0.0
20/01:00am 13.4 14.2 12.6 95 0.4 CALM 0 0 0 0 1014.0 1013.1 0.0
20/12:30am 14.1 14.7 13.0 93 0.6 NE 2 7 1 4 1014.0 1013.1 0.0
20/12:00am 14.6 14.6 13.5 93 0.6 SE 6 11 3 6 1014.2 1013.3 0.0
 
Date/Time
WST
Temp
°C
App
Temp
°C
Dew
Point
Rel
Hum
%
Delta-T
°C
Wind Press
QNH
hPa
Press
MSL
hPa
Rain
since 9 am
mm
Dir
 
Spd
km/h
Gust
km/h
Spd
kts
Gust
kts
19/11:30pm 14.7 14.5 13.7 94 0.6 ENE 7 9 4 5 1014.3 1013.4 0.0
19/11:00pm 14.6 14.6 13.6 94 0.6 SE 6 9 3 5 1014.8 1013.9 0.0
19/10:30pm 14.7 15.3 13.2 91 0.8 SSE 2 7 1 4 1015.0 1014.1 0.0
19/10:00pm 15.3 14.8 13.7 90 0.9 SSE 9 13 5 7 1014.9 1014.0 0.0
19/09:30pm 15.6 15.0 13.6 88 1.1 SE 9 17 5 9 1014.7 1013.8 0.0
19/09:00pm 15.9 15.3 13.4 85 1.4 SSE 9 15 5 8 1014.6 1013.7 0.0
19/08:30pm 16.6 16.0 13.5 82 1.8 SE 9 11 5 6 1014.4 1013.5 0.0
19/08:00pm 17.1 16.6 13.8 81 1.9 S 9 13 5 7 1014.4 1013.5 0.0
19/07:30pm 17.3 16.8 13.8 80 2.0 SSE 9 13 5 7 1014.1 1013.2 0.0
19/07:00pm 17.6 15.5 13.7 78 2.2 SSE 17 26 9 14 1013.8 1012.9 0.0
19/06:30pm 18.4 15.9 13.5 73 2.8 SSE 19 26 10 14 1013.7 1012.8 0.0
19/06:00pm 18.9 17.5 13.5 71 3.1 SSE 13 19 7 10 1013.1 1012.2 0.0
19/05:30pm 19.3 17.6 13.7 70 3.2 SSE 15 22 8 12 1012.7 1011.8 0.0
19/05:00pm 19.9 18.6 13.6 67 3.7 S 13 19 7 10 1012.8 1011.9 0.0
19/04:30pm 19.9 18.4 13.1 65 3.9 SSW 13 19 7 10 1012.5 1011.6 0.0
19/04:00pm 20.4 18.5 13.1 63 4.2 S 15 20 8 11 1012.1 1011.2 0.0
19/03:30pm 20.5 18.4 13.7 65 4.0 S 17 24 9 13 1011.8 1010.8 0.0
19/03:00pm 19.9 18.5 13.4 66 3.8 S 13 19 7 10 1012.1 1011.2 0.0
19/02:30pm 20.3 19.3 13.3 64 4.0 SSW 11 17 6 9 1012.2 1011.3 0.0
19/02:00pm 20.5 19.0 13.0 62 4.3 SSW 13 19 7 10 1012.3 1011.4 0.0
19/01:30pm 21.3 20.7 14.7 66 3.9 SW 11 19 6 10 1012.5 1011.6 0.0
19/01:00pm 20.8 20.1 14.2 66 3.9 W 11 17 6 9 1012.8 1011.9 0.0
19/12:30pm 20.0 19.4 13.5 66 3.8 WSW 9 17 5 9 1013.2 1012.3 0.0
19/12:00pm 19.0 16.8 13.2 69 3.3 S 17 24 9 13 1013.4 1012.5 0.0
19/11:30am 18.9 17.0 13.1 69 3.3 S 15 20 8 11 1013.1 1012.2 0.0
19/11:00am 18.9 17.1 13.3 70 3.2 SSW 15 22 8 12 1013.4 1012.5 0.0

Other Formats:

Comma delimited format used in spreadsheet applications
http://www.bom.gov.au/fwo/IDW60801/IDW60801.95642.axf

JavaScript Object Notation format (JSON) in row-major order
http://www.bom.gov.au/fwo/IDW60801/IDW60801.95642.json